createdAt,value
2018-08-19T00:01:22.535Z,32.50
2018-08-19T00:03:55.977Z,32.35
2018-08-19T00:06:29.429Z,32.42
2018-08-19T00:09:08.258Z,32.23
2018-08-19T00:11:42.702Z,32.88
2018-08-19T00:14:29.914Z,31.97
2018-08-19T00:17:04.031Z,32.48
2018-08-19T00:19:37.527Z,32.98
2018-08-19T00:22:10.975Z,32.45
2018-08-19T00:24:44.374Z,32.98
2018-08-19T00:27:17.811Z,32.90
2018-08-19T00:29:51.213Z,33.65
2018-08-19T00:32:24.650Z,32.65
2018-08-19T00:34:58.061Z,32.98
2018-08-19T00:37:31.516Z,33.55
2018-08-19T00:40:10.178Z,32.98
2018-08-19T00:42:44.449Z,33.53
2018-08-19T00:45:18.140Z,32.67
2018-08-19T00:47:51.598Z,32.30
2018-08-19T00:50:25.652Z,32.93
2018-08-19T00:52:59.100Z,33.13
2018-08-19T00:55:38.625Z,32.80
2018-08-19T00:58:19.862Z,33.08
2018-08-19T01:00:53.304Z,32.17
2018-08-19T01:03:26.732Z,31.87
2018-08-19T01:06:00.200Z,32.67
2018-08-19T01:08:33.606Z,32.20
2018-08-19T01:11:16.859Z,32.53
2018-08-19T01:13:50.298Z,32.35
2018-08-19T01:16:24.290Z,32.40
2018-08-19T01:19:00.678Z,31.97
2018-08-19T01:21:34.131Z,31.87
2018-08-19T01:24:08.934Z,32.03
2018-08-19T01:26:42.824Z,31.95
2018-08-19T01:29:26.307Z,31.40
2018-08-19T01:32:04.646Z,31.97
2018-08-19T01:34:38.431Z,31.75
2018-08-19T01:37:12.273Z,32.05
2018-08-19T01:39:45.658Z,31.75
2018-08-19T01:42:19.106Z,31.55
2018-08-19T01:44:52.503Z,31.45
2018-08-19T01:47:25.923Z,31.68
2018-08-19T01:49:59.322Z,31.23
2018-08-19T01:52:32.742Z,31.20
2018-08-19T01:55:07.174Z,32.28
2018-08-19T01:57:47.543Z,31.35
2018-08-19T02:00:20.959Z,31.05
2018-08-19T02:02:59.054Z,31.40
2018-08-19T02:05:32.539Z,30.88
2018-08-19T02:08:06.062Z,31.20
2018-08-19T02:10:39.490Z,31.87
2018-08-19T02:13:12.904Z,30.77
2018-08-19T02:15:46.311Z,31.50
2018-08-19T02:18:19.750Z,31.23
2018-08-19T02:20:53.137Z,30.77
2018-08-19T02:23:26.538Z,31.40
2018-08-19T02:25:59.942Z,31.62
2018-08-19T02:28:33.350Z,32.23
2018-08-19T02:31:06.809Z,31.17
2018-08-19T02:33:40.219Z,32.28
2018-08-19T02:36:15.027Z,31.17
2018-08-19T02:38:48.469Z,32.17
2018-08-19T02:41:21.875Z,32.25
2018-08-19T02:43:57.938Z,31.48
2018-08-19T02:46:31.351Z,31.55
2018-08-19T02:49:04.841Z,31.77
2018-08-19T02:51:38.226Z,31.97
2018-08-19T02:54:11.646Z,32.00
2018-08-19T02:56:45.071Z,32.08
2018-08-19T02:59:18.475Z,31.97
2018-08-19T03:01:51.870Z,32.10
2018-08-19T03:04:25.302Z,32.23
2018-08-19T03:06:58.690Z,32.50
2018-08-19T03:09:32.095Z,32.48
2018-08-19T03:12:09.481Z,31.33
2018-08-19T03:14:42.889Z,32.38
2018-08-19T03:17:16.314Z,31.37
2018-08-19T03:19:51.737Z,31.52
2018-08-19T03:22:25.582Z,31.75
2018-08-19T03:25:01.659Z,31.42
2018-08-19T03:27:35.077Z,31.77
2018-08-19T03:30:10.982Z,32.17
2018-08-19T03:32:50.319Z,31.85
2018-08-19T03:35:29.856Z,30.88
2018-08-19T03:38:11.162Z,31.42
2018-08-19T03:40:44.591Z,32.60
2018-08-19T03:43:18.027Z,30.95
2018-08-19T03:45:51.500Z,31.57
2018-08-19T03:48:24.938Z,31.90
2018-08-19T03:50:58.391Z,31.37
2018-08-19T03:53:31.819Z,31.68
2018-08-19T03:56:06.527Z,32.13
2018-08-19T03:58:39.951Z,31.90
2018-08-19T04:01:13.493Z,31.27
2018-08-19T04:03:46.911Z,31.85
2018-08-19T04:06:20.400Z,32.05
2018-08-19T04:08:54.170Z,31.82
2018-08-19T04:11:27.667Z,31.97
2018-08-19T04:14:01.096Z,31.70
2018-08-19T04:16:34.549Z,32.08
2018-08-19T04:19:09.300Z,32.25
2018-08-19T04:21:42.778Z,32.03
2018-08-19T04:24:16.199Z,32.28
2018-08-19T04:26:49.643Z,32.23
2018-08-19T04:29:27.444Z,31.55
2018-08-19T04:32:00.899Z,31.77
2018-08-19T04:34:34.350Z,32.70
2018-08-19T04:37:07.807Z,31.90
2018-08-19T04:39:41.307Z,32.13
2018-08-19T04:42:14.813Z,32.17
2018-08-19T04:44:48.280Z,31.62
2018-08-19T04:47:29.659Z,31.77
2018-08-19T04:50:03.179Z,31.77
2018-08-19T04:52:36.619Z,31.60
2018-08-19T04:55:10.071Z,31.95
2018-08-19T04:57:43.500Z,31.33
2018-08-19T05:00:17.020Z,31.90
2018-08-19T05:02:50.452Z,32.70
2018-08-19T05:05:23.899Z,31.85
2018-08-19T05:07:57.397Z,32.40
2018-08-19T05:10:30.825Z,31.60
2018-08-19T05:13:04.312Z,32.85
2018-08-19T05:15:38.638Z,31.97
2018-08-19T05:18:12.178Z,31.60
2018-08-19T05:20:45.619Z,31.15
2018-08-19T05:23:19.064Z,30.95
2018-08-19T05:25:57.192Z,31.17
2018-08-19T05:28:30.720Z,31.30
2018-08-19T05:31:04.131Z,31.73
2018-08-19T05:33:37.678Z,31.20
2018-08-19T05:36:11.157Z,31.73
2018-08-19T05:38:45.387Z,31.60
2018-08-19T05:41:18.823Z,31.12
2018-08-19T05:43:52.255Z,31.15
2018-08-19T05:46:25.712Z,31.25
2018-08-19T05:49:04.292Z,31.35
2018-08-19T05:51:37.743Z,31.15
2018-08-19T05:54:11.245Z,31.65
2018-08-19T05:56:44.974Z,31.52
2018-08-19T05:59:18.387Z,31.87
2018-08-19T06:01:51.856Z,31.05
2018-08-19T06:04:25.296Z,31.30
2018-08-19T06:07:04.548Z,31.40
2018-08-19T06:09:37.978Z,31.00
2018-08-19T06:12:11.463Z,31.10
2018-08-19T06:14:44.896Z,31.52
2018-08-19T06:17:18.347Z,31.10
2018-08-19T06:19:51.776Z,30.43
2018-08-19T06:22:31.335Z,31.82
2018-08-19T06:25:04.959Z,31.40
2018-08-19T06:27:43.742Z,31.48
2018-08-19T06:30:18.202Z,31.33
2018-08-19T06:32:51.666Z,32.05
2018-08-19T06:35:25.112Z,30.68
2018-08-19T06:37:58.575Z,30.82
2018-08-19T06:40:32.035Z,31.62
2018-08-19T06:43:05.543Z,31.05
2018-08-19T06:45:38.972Z,31.37
2018-08-19T06:48:12.434Z,30.32
2018-08-19T06:50:45.886Z,30.32
2018-08-19T06:53:24.713Z,30.60
2018-08-19T06:55:58.418Z,30.90
2018-08-19T06:58:31.932Z,31.42
2018-08-19T07:01:05.562Z,31.05
2018-08-19T07:03:43.412Z,31.00
2018-08-19T07:06:16.819Z,31.62
2018-08-19T07:08:50.283Z,31.00
2018-08-19T07:11:23.731Z,31.07
2018-08-19T07:13:57.189Z,30.88
2018-08-19T07:16:30.630Z,31.50
2018-08-19T07:19:04.236Z,31.55
2018-08-19T07:21:37.663Z,31.45
2018-08-19T07:24:11.113Z,30.92
2018-08-19T07:26:44.539Z,31.02
2018-08-19T07:29:17.999Z,31.35
2018-08-19T07:31:51.443Z,31.62
2018-08-19T07:34:24.895Z,31.45
2018-08-19T07:36:58.697Z,31.77
2018-08-19T07:39:42.204Z,31.55
2018-08-19T07:42:15.715Z,31.07
2018-08-19T07:44:49.156Z,30.92
2018-08-19T07:47:22.651Z,31.20
2018-08-19T07:49:56.091Z,32.10
2018-08-19T07:52:29.532Z,31.93
2018-08-19T07:55:02.968Z,31.23
2018-08-19T07:57:37.449Z,32.13
2018-08-19T08:00:11.751Z,31.80
2018-08-19T08:02:45.219Z,31.73
2018-08-19T08:05:18.675Z,31.62
2018-08-19T08:07:52.159Z,31.42
2018-08-19T08:10:25.594Z,32.17
2018-08-19T08:13:04.194Z,31.82
2018-08-19T08:15:42.982Z,31.93
2018-08-19T08:18:16.468Z,31.35
2018-08-19T08:20:50.075Z,32.25
2018-08-19T08:23:25.050Z,31.97
2018-08-19T08:25:58.514Z,31.07
2018-08-19T08:28:31.983Z,32.10
2018-08-19T08:31:07.491Z,30.95
2018-08-19T08:33:41.096Z,31.00
2018-08-19T08:36:14.561Z,31.07
2018-08-19T08:38:48.052Z,31.05
2018-08-19T08:41:21.530Z,31.77
2018-08-19T08:43:55.000Z,31.48
2018-08-19T08:46:28.427Z,31.07
2018-08-19T08:49:01.859Z,30.82
2018-08-19T08:51:35.311Z,31.23
2018-08-19T08:54:08.795Z,30.65
2018-08-19T08:56:42.236Z,30.17
2018-08-19T08:59:15.691Z,31.10
2018-08-19T09:01:49.159Z,31.07
2018-08-19T09:04:22.630Z,31.93
2018-08-19T09:06:56.064Z,31.23
2018-08-19T09:09:29.515Z,31.45
2018-08-19T09:12:03.005Z,30.55
2018-08-19T09:14:36.447Z,31.35
2018-08-19T09:17:11.279Z,30.82
2018-08-19T09:19:44.809Z,30.77
2018-08-19T09:22:18.247Z,32.05
2018-08-19T09:24:51.704Z,30.90
2018-08-19T09:27:25.211Z,30.40
2018-08-19T09:29:58.667Z,31.00
2018-08-19T09:32:32.107Z,31.48
2018-08-19T09:35:05.582Z,30.25
2018-08-19T09:37:39.023Z,30.85
2018-08-19T09:40:12.471Z,31.17
2018-08-19T09:42:45.915Z,30.55
2018-08-19T09:45:19.363Z,30.25
2018-08-19T09:47:52.961Z,30.50
2018-08-19T09:50:26.307Z,30.75
2018-08-19T09:52:59.732Z,31.30
2018-08-19T09:55:38.667Z,30.82
2018-08-19T09:58:18.732Z,29.95
2018-08-19T10:00:57.506Z,31.12
2018-08-19T10:03:31.895Z,30.90
2018-08-19T10:06:05.386Z,30.45
2018-08-19T10:08:38.863Z,30.75
2018-08-19T10:11:12.322Z,31.05
2018-08-19T10:13:48.022Z,30.90
2018-08-19T10:16:32.556Z,31.50
2018-08-19T10:19:05.995Z,30.88
2018-08-19T10:21:39.471Z,31.40
2018-08-19T10:24:25.067Z,30.48
2018-08-19T10:26:58.978Z,30.40
2018-08-19T10:29:32.404Z,31.00
2018-08-19T10:32:06.092Z,30.45
2018-08-19T10:34:39.546Z,30.52
2018-08-19T10:37:13.036Z,30.65
2018-08-19T10:39:46.458Z,30.20
2018-08-19T10:42:23.775Z,29.87
2018-08-19T10:44:57.339Z,30.60
2018-08-19T10:47:31.046Z,30.23
2018-08-19T10:50:07.558Z,30.20
2018-08-19T10:52:42.067Z,30.37
2018-08-19T10:55:15.747Z,30.80
2018-08-19T10:57:49.264Z,30.20
2018-08-19T11:00:32.263Z,30.52
2018-08-19T11:03:12.059Z,30.48
2018-08-19T11:05:46.441Z,30.12
2018-08-19T11:08:19.966Z,31.73
2018-08-19T11:10:53.395Z,30.27
2018-08-19T11:13:26.897Z,30.70
2018-08-19T11:16:00.363Z,30.43
2018-08-19T11:18:41.779Z,29.65
2018-08-19T11:21:25.523Z,30.77
2018-08-19T11:23:59.589Z,30.37
2018-08-19T11:26:33.048Z,30.15
2018-08-19T11:29:06.527Z,30.30
2018-08-19T11:31:40.135Z,30.08
2018-08-19T11:34:13.667Z,30.25
2018-08-19T11:36:47.120Z,30.68
2018-08-19T11:39:20.618Z,30.80
2018-08-19T11:41:54.092Z,30.72
2018-08-19T11:44:27.559Z,30.32
2018-08-19T11:47:01.043Z,30.50
2018-08-19T11:49:34.489Z,31.25
2018-08-19T11:52:07.954Z,30.48
2018-08-19T11:54:41.392Z,30.40
2018-08-19T11:57:14.842Z,30.62
2018-08-19T11:59:48.307Z,29.98
2018-08-19T12:02:23.835Z,30.37
2018-08-19T12:04:57.264Z,30.62
2018-08-19T12:07:30.731Z,30.72
2018-08-19T12:10:04.236Z,31.45
2018-08-19T12:12:48.358Z,30.95
2018-08-19T12:15:21.807Z,29.82
2018-08-19T12:17:55.308Z,30.50
2018-08-19T12:20:33.819Z,30.85
2018-08-19T12:23:08.179Z,30.52
2018-08-19T12:25:41.627Z,30.50
2018-08-19T12:28:15.098Z,31.35
2018-08-19T12:30:48.635Z,31.02
2018-08-19T12:33:24.554Z,30.88
2018-08-19T12:35:58.543Z,31.10
2018-08-19T12:38:32.013Z,30.92
2018-08-19T12:41:05.644Z,31.12
2018-08-19T12:43:41.409Z,31.25
2018-08-19T12:46:14.872Z,30.97
2018-08-19T12:48:48.323Z,31.42
2018-08-19T12:51:21.839Z,31.45
2018-08-19T12:53:55.247Z,31.17
2018-08-19T12:56:28.694Z,31.25
2018-08-19T12:59:02.155Z,32.78
2018-08-19T13:01:35.589Z,31.15
2018-08-19T13:04:09.155Z,31.80
2018-08-19T13:06:56.844Z,31.95
2018-08-19T13:09:31.251Z,31.40
2018-08-19T13:12:06.826Z,31.95
2018-08-19T13:14:40.912Z,31.87
2018-08-19T13:17:14.599Z,32.48
2018-08-19T13:20:00.034Z,31.70
2018-08-19T13:22:34.247Z,31.70
2018-08-19T13:25:07.827Z,32.35
2018-08-19T13:27:43.951Z,32.30
2018-08-19T13:30:18.299Z,31.73
2018-08-19T13:32:52.395Z,32.28
2018-08-19T13:35:25.907Z,31.85
2018-08-19T13:37:59.387Z,32.60
2018-08-19T13:40:32.839Z,32.00
2018-08-19T13:43:06.439Z,31.62
2018-08-19T13:45:39.887Z,31.77
2018-08-19T13:48:13.341Z,31.97
2018-08-19T13:50:46.829Z,32.05
2018-08-19T13:53:20.299Z,32.00
2018-08-19T13:55:53.748Z,32.23
2018-08-19T13:58:27.196Z,32.53
2018-08-19T14:01:00.740Z,32.08
2018-08-19T14:03:34.192Z,32.63
2018-08-19T14:06:08.020Z,32.48
2018-08-19T14:08:41.466Z,32.28
2018-08-19T14:11:15.195Z,32.10
2018-08-19T14:13:48.759Z,32.33
2018-08-19T14:16:23.279Z,33.02
2018-08-19T14:18:59.476Z,33.02
2018-08-19T14:21:36.194Z,33.02
2018-08-19T14:24:10.331Z,33.28
2018-08-19T14:26:44.210Z,33.20
2018-08-19T14:29:25.038Z,33.00
2018-08-19T14:31:59.856Z,33.10
2018-08-19T14:34:33.386Z,33.28
2018-08-19T14:37:11.649Z,32.83
2018-08-19T14:39:46.862Z,32.70
2018-08-19T14:42:23.326Z,32.20
2018-08-19T14:45:01.165Z,33.48
2018-08-19T19:29:12.839Z,31.57
2018-08-19T19:31:46.409Z,31.52
2018-08-19T19:34:19.887Z,31.65
2018-08-19T19:36:53.385Z,31.60
2018-08-19T19:39:26.836Z,31.33
2018-08-19T19:42:09.482Z,31.57
2018-08-19T19:44:43.579Z,31.60
2018-08-19T19:47:17.039Z,31.82
2018-08-19T19:49:56.665Z,31.62
2018-08-19T19:52:30.142Z,31.05
2018-08-19T19:55:03.783Z,31.27
2018-08-19T19:57:37.249Z,30.75
2018-08-19T20:00:10.783Z,31.33
2018-08-19T20:02:44.271Z,31.62
2018-08-19T20:05:22.819Z,31.97
2018-08-19T20:07:56.391Z,31.15
2018-08-19T20:10:30.067Z,31.20
2018-08-19T20:13:03.536Z,31.25
2018-08-19T20:15:37.024Z,30.75
2018-08-19T20:18:10.614Z,31.30
2018-08-19T20:20:44.093Z,30.75
2018-08-19T20:23:23.603Z,31.10
2018-08-19T20:25:57.036Z,30.75
2018-08-19T20:28:30.512Z,31.12
2018-08-19T20:31:03.991Z,30.92
2018-08-19T20:33:37.632Z,31.60
2018-08-19T20:36:11.138Z,31.60
2018-08-19T20:38:44.595Z,30.80
2018-08-19T20:41:18.242Z,31.07
2018-08-19T20:43:51.709Z,31.05
2018-08-19T20:46:25.158Z,30.82
2018-08-19T20:48:59.051Z,30.75
2018-08-19T20:51:32.615Z,30.88
2018-08-19T20:54:06.114Z,30.60
2018-08-19T20:56:39.547Z,30.35
2018-08-19T20:59:15.946Z,30.80
2018-08-19T21:01:49.915Z,31.30
2018-08-19T21:04:23.471Z,30.85
2018-08-19T21:06:57.022Z,31.00
2018-08-19T21:09:30.887Z,30.85
2018-08-19T21:12:04.435Z,30.45
2018-08-19T21:14:37.879Z,30.12
2018-08-19T21:17:11.415Z,30.65
2018-08-19T21:19:45.872Z,31.27
2018-08-19T21:22:19.347Z,30.62
2018-08-19T21:24:52.772Z,30.60
2018-08-19T21:27:26.271Z,30.70
2018-08-19T21:29:59.854Z,31.00
2018-08-19T21:32:33.295Z,30.15
2018-08-19T21:35:08.051Z,30.95
2018-08-19T21:37:41.599Z,30.08
2018-08-19T21:40:32.668Z,30.77
2018-08-19T21:43:06.632Z,30.68
2018-08-19T21:45:40.383Z,30.08
2018-08-19T21:48:16.164Z,30.97
2018-08-19T21:50:49.591Z,30.25
2018-08-19T21:53:23.118Z,30.80
2018-08-19T21:55:56.617Z,30.80
2018-08-19T21:58:30.072Z,30.48
2018-08-19T22:01:07.791Z,30.45
2018-08-19T22:03:49.983Z,31.15
2018-08-19T22:06:23.461Z,30.50
2018-08-19T22:08:56.923Z,30.85
2018-08-19T22:11:31.431Z,30.92
2018-08-19T22:14:04.947Z,30.57
2018-08-19T22:16:38.447Z,30.57
2018-08-19T22:19:11.975Z,31.10
2018-08-19T22:21:45.440Z,30.12
2018-08-19T22:24:18.933Z,30.52
2018-08-19T22:26:52.426Z,30.60
2018-08-19T22:29:25.884Z,30.65
2018-08-19T22:31:59.357Z,30.95
2018-08-19T22:34:32.841Z,30.60
2018-08-19T22:37:06.724Z,31.12
2018-08-19T22:39:40.194Z,30.75
2018-08-19T22:42:13.635Z,30.62
2018-08-19T22:44:47.094Z,30.45
2018-08-19T22:47:20.576Z,30.45
2018-08-19T22:49:54.012Z,30.60
2018-08-19T22:52:27.475Z,31.10
2018-08-19T22:55:00.919Z,30.95
2018-08-19T22:57:34.330Z,30.65
2018-08-19T23:00:07.855Z,31.23
2018-08-19T23:02:41.325Z,30.27
2018-08-19T23:05:15.839Z,30.82
2018-08-19T23:07:49.252Z,30.88
2018-08-19T23:10:22.742Z,30.52
2018-08-19T23:12:56.389Z,30.95
2018-08-19T23:15:36.743Z,31.00
2018-08-19T23:18:10.299Z,30.90
2018-08-19T23:20:43.778Z,31.25
2018-08-19T23:23:17.234Z,30.40
2018-08-19T23:34:40.768Z,31.42
2018-08-19T23:37:14.266Z,31.20
2018-08-19T23:39:47.658Z,30.12
2018-08-19T23:42:21.083Z,30.97
2018-08-19T23:44:54.492Z,31.27
2018-08-19T23:47:27.911Z,31.30
2018-08-19T23:50:01.316Z,30.65
2018-08-19T23:52:34.880Z,30.25
2018-08-19T23:55:08.340Z,30.62
2018-08-19T23:57:41.781Z,31.02
